sensor_id;sensor_type;location;lat;lon;timestamp;temperature;humidity
9975;DHT22;5028;50.974;4.968;2023-03-01T00:00:49;0.00;99.90
9975;DHT22;5028;50.974;4.968;2023-03-01T00:03:26;0.20;99.90
9975;DHT22;5028;50.974;4.968;2023-03-01T00:05:55;0.00;99.90
9975;DHT22;5028;50.974;4.968;2023-03-01T00:08:37;0.00;99.90
9975;DHT22;5028;50.974;4.968;2023-03-01T00:11:07;-0.10;99.90
9975;DHT22;5028;50.974;4.968;2023-03-01T00:13:43;-0.10;99.90
9975;DHT22;5028;50.974;4.968;2023-03-01T00:16:17;-0.10;99.90
9975;DHT22;5028;50.974;4.968;2023-03-01T00:18:55;-0.20;99.90
9975;DHT22;5028;50.974;4.968;2023-03-01T00:21:25;-0.20;99.90
9975;DHT22;5028;50.974;4.968;2023-03-01T00:23:59;-0.10;99.90
9975;DHT22;5028;50.974;4.968;2023-03-01T00:26:29;-0.20;99.90
9975;DHT22;5028;50.974;4.968;2023-03-01T00:29:04;-0.30;99.90
9975;DHT22;5028;50.974;4.968;2023-03-01T00:31:33;-0.40;99.90
9975;DHT22;5028;50.974;4.968;2023-03-01T00:34:10;-0.30;99.90
9975;DHT22;5028;50.974;4.968;2023-03-01T00:36:39;-0.40;99.90
9975;DHT22;5028;50.974;4.968;2023-03-01T00:39:15;-0.40;99.90
9975;DHT22;5028;50.974;4.968;2023-03-01T00:41:43;-0.40;99.90
9975;DHT22;5028;50.974;4.968;2023-03-01T00:44:19;-0.30;99.90
9975;DHT22;5028;50.974;4.968;2023-03-01T00:46:47;-0.50;99.90
9975;DHT22;5028;50.974;4.968;2023-03-01T00:49:24;-0.50;99.90
9975;DHT22;5028;50.974;4.968;2023-03-01T00:51:54;-0.50;99.90
9975;DHT22;5028;50.974;4.968;2023-03-01T00:54:29;-0.50;99.90
9975;DHT22;5028;50.974;4.968;2023-03-01T00:56:58;-0.50;99.90
9975;DHT22;5028;50.974;4.968;2023-03-01T00:59:33;-0.50;99.90
9975;DHT22;5028;50.974;4.968;2023-03-01T01:02:02;-0.50;99.90
9975;DHT22;5028;50.974;4.968;2023-03-01T01:04:39;-0.50;99.90
9975;DHT22;5028;50.974;4.968;2023-03-01T01:07:08;-0.60;99.90
9975;DHT22;5028;50.974;4.968;2023-03-01T01:09:44;-0.60;99.90
9975;DHT22;5028;50.974;4.968;2023-03-01T01:12:13;-0.60;99.90
9975;DHT22;5028;50.974;4.968;2023-03-01T01:14:48;-0.60;99.90
9975;DHT22;5028;50.974;4.968;2023-03-01T01:17:16;-0.70;99.90
9975;DHT22;5028;50.974;4.968;2023-03-01T01:19:53;-0.60;99.90
9975;DHT22;5028;50.974;4.968;2023-03-01T01:22:22;-0.60;99.90
9975;DHT22;5028;50.974;4.968;2023-03-01T01:24:57;-0.70;99.90
9975;DHT22;5028;50.974;4.968;2023-03-01T01:27:25;-0.70;99.90
9975;DHT22;5028;50.974;4.968;2023-03-01T01:30:00;-0.70;99.90
9975;DHT22;5028;50.974;4.968;2023-03-01T01:32:29;-0.60;99.90
9975;DHT22;5028;50.974;4.968;2023-03-01T01:35:06;-0.70;99.90
9975;DHT22;5028;50.974;4.968;2023-03-01T01:37:35;-0.70;99.90
9975;DHT22;5028;50.974;4.968;2023-03-01T01:40:11;-0.80;99.90
9975;DHT22;5028;50.974;4.968;2023-03-01T01:42:40;-0.80;99.90
9975;DHT22;5028;50.974;4.968;2023-03-01T01:45:29;-0.80;99.90
9975;DHT22;5028;50.974;4.968;2023-03-01T01:48:02;-0.80;99.90
9975;DHT22;5028;50.974;4.968;2023-03-01T01:50:40;-0.80;99.90
9975;DHT22;5028;50.974;4.968;2023-03-01T01:53:14;-0.80;99.90
9975;DHT22;5028;50.974;4.968;2023-03-01T01:55:53;-0.80;99.90
9975;DHT22;5028;50.974;4.968;2023-03-01T01:58:24;-0.80;99.90
9975;DHT22;5028;50.974;4.968;2023-03-01T02:01:01;-0.80;99.90
9975;DHT22;5028;50.974;4.968;2023-03-01T02:03:31;-0.80;99.90
9975;DHT22;5028;50.974;4.968;2023-03-01T02:06:18;-0.80;99.90
9975;DHT22;5028;50.974;4.968;2023-03-01T02:08:57;-0.80;99.90
9975;DHT22;5028;50.974;4.968;2023-03-01T02:11:30;-0.90;99.90
9975;DHT22;5028;50.974;4.968;2023-03-01T02:14:06;-0.70;99.90
9975;DHT22;5028;50.974;4.968;2023-03-01T02:16:35;-0.90;99.90
9975;DHT22;5028;50.974;4.968;2023-03-01T02:19:22;-0.90;99.90
9975;DHT22;5028;50.974;4.968;2023-03-01T02:22:02;-0.90;99.90
9975;DHT22;5028;50.974;4.968;2023-03-01T02:24:48;-0.90;99.90
9975;DHT22;5028;50.974;4.968;2023-03-01T02:27:33;-0.90;99.90
9975;DHT22;5028;50.974;4.968;2023-03-01T02:30:27;-1.00;99.90
9975;DHT22;5028;50.974;4.968;2023-03-01T02:32:58;-1.00;99.90
9975;DHT22;5028;50.974;4.968;2023-03-01T02:35:39;-1.10;99.90
9975;DHT22;5028;50.974;4.968;2023-03-01T02:38:09;-1.10;99.90
9975;DHT22;5028;50.974;4.968;2023-03-01T02:40:44;-1.10;99.90
9975;DHT22;5028;50.974;4.968;2023-03-01T02:43:13;-1.20;99.90
9975;DHT22;5028;50.974;4.968;2023-03-01T02:45:51;-1.20;99.90
9975;DHT22;5028;50.974;4.968;2023-03-01T02:48:22;-1.30;99.90
9975;DHT22;5028;50.974;4.968;2023-03-01T02:51:05;-1.30;99.90
9975;DHT22;5028;50.974;4.968;2023-03-01T02:53:44;-1.30;99.90
9975;DHT22;5028;50.974;4.968;2023-03-01T02:56:19;-1.30;99.90
9975;DHT22;5028;50.974;4.968;2023-03-01T02:58:48;-1.30;99.90
9975;DHT22;5028;50.974;4.968;2023-03-01T03:01:33;-1.30;99.90
9975;DHT22;5028;50.974;4.968;2023-03-01T03:04:05;-1.30;99.90
9975;DHT22;5028;50.974;4.968;2023-03-01T03:06:59;-1.30;99.90
9975;DHT22;5028;50.974;4.968;2023-03-01T03:09:27;-1.30;99.90
9975;DHT22;5028;50.974;4.968;2023-03-01T03:12:04;-1.40;99.90
9975;DHT22;5028;50.974;4.968;2023-03-01T03:14:33;-1.40;99.90
9975;DHT22;5028;50.974;4.968;2023-03-01T03:17:10;-1.40;99.90
9975;DHT22;5028;50.974;4.968;2023-03-01T03:19:40;-1.30;99.90
9975;DHT22;5028;50.974;4.968;2023-03-01T03:22:21;-1.50;99.90
9975;DHT22;5028;50.974;4.968;2023-03-01T03:24:50;-1.50;99.90
9975;DHT22;5028;50.974;4.968;2023-03-01T03:27:26;-1.50;99.90
9975;DHT22;5028;50.974;4.968;2023-03-01T03:29:56;-1.50;99.90
9975;DHT22;5028;50.974;4.968;2023-03-01T03:32:33;-1.50;99.90
9975;DHT22;5028;50.974;4.968;2023-03-01T03:35:02;-1.50;99.90
9975;DHT22;5028;50.974;4.968;2023-03-01T03:37:43;-1.50;99.90
9975;DHT22;5028;50.974;4.968;2023-03-01T03:40:31;-1.50;99.90
9975;DHT22;5028;50.974;4.968;2023-03-01T03:43:08;-1.60;99.90
9975;DHT22;5028;50.974;4.968;2023-03-01T03:45:37;-1.50;99.90
9975;DHT22;5028;50.974;4.968;2023-03-01T03:48:15;-1.60;99.90
9975;DHT22;5028;50.974;4.968;2023-03-01T03:50:48;-1.60;99.90
9975;DHT22;5028;50.974;4.968;2023-03-01T03:53:26;-1.60;99.90
9975;DHT22;5028;50.974;4.968;2023-03-01T03:55:55;-1.60;99.90
9975;DHT22;5028;50.974;4.968;2023-03-01T03:58:32;-1.60;99.90
9975;DHT22;5028;50.974;4.968;2023-03-01T04:01:03;-1.40;99.90
9975;DHT22;5028;50.974;4.968;2023-03-01T04:03:39;-1.60;99.90
9975;DHT22;5028;50.974;4.968;2023-03-01T04:06:21;-1.60;99.90
9975;DHT22;5028;50.974;4.968;2023-03-01T04:08:58;-1.60;99.90
9975;DHT22;5028;50.974;4.968;2023-03-01T04:11:34;-1.70;99.90
9975;DHT22;5028;50.974;4.968;2023-03-01T04:14:03;-1.50;99.90
9975;DHT22;5028;50.974;4.968;2023-03-01T04:16:39;-1.70;99.90
9975;DHT22;5028;50.974;4.968;2023-03-01T04:19:09;-1.80;99.90
9975;DHT22;5028;50.974;4.968;2023-03-01T04:21:45;-1.80;99.90
9975;DHT22;5028;50.974;4.968;2023-03-01T04:24:13;-1.80;99.90
9975;DHT22;5028;50.974;4.968;2023-03-01T04:26:49;-1.80;99.90
9975;DHT22;5028;50.974;4.968;2023-03-01T04:29:17;-1.90;99.90
9975;DHT22;5028;50.974;4.968;2023-03-01T04:31:54;-1.90;99.90
9975;DHT22;5028;50.974;4.968;2023-03-01T04:34:24;-1.80;99.90
9975;DHT22;5028;50.974;4.968;2023-03-01T04:37:03;-1.90;99.90
9975;DHT22;5028;50.974;4.968;2023-03-01T04:39:33;-1.80;99.90
9975;DHT22;5028;50.974;4.968;2023-03-01T04:42:19;-1.80;99.90
9975;DHT22;5028;50.974;4.968;2023-03-01T04:44:47;-1.80;99.90
9975;DHT22;5028;50.974;4.968;2023-03-01T04:47:25;-1.80;99.90
9975;DHT22;5028;50.974;4.968;2023-03-01T04:49:55;-1.90;99.90
9975;DHT22;5028;50.974;4.968;2023-03-01T04:52:31;-1.90;99.90
9975;DHT22;5028;50.974;4.968;2023-03-01T04:55:00;-1.70;99.90
9975;DHT22;5028;50.974;4.968;2023-03-01T04:57:35;-1.90;99.90
9975;DHT22;5028;50.974;4.968;2023-03-01T05:00:06;-1.90;99.90
9975;DHT22;5028;50.974;4.968;2023-03-01T05:02:54;-1.90;99.90
9975;DHT22;5028;50.974;4.968;2023-03-01T05:05:38;-2.00;99.90
9975;DHT22;5028;50.974;4.968;2023-03-01T05:08:14;-2.00;99.90
9975;DHT22;5028;50.974;4.968;2023-03-01T05:10:47;-2.00;99.90
9975;DHT22;5028;50.974;4.968;2023-03-01T05:13:23;-2.10;99.90
9975;DHT22;5028;50.974;4.968;2023-03-01T05:15:54;-2.10;99.90
9975;DHT22;5028;50.974;4.968;2023-03-01T05:18:31;-2.10;99.90
9975;DHT22;5028;50.974;4.968;2023-03-01T05:21:04;-2.10;99.90
9975;DHT22;5028;50.974;4.968;2023-03-01T05:23:40;-2.10;99.90
9975;DHT22;5028;50.974;4.968;2023-03-01T05:26:09;-2.10;99.90
9975;DHT22;5028;50.974;4.968;2023-03-01T05:28:54;-2.10;99.90
9975;DHT22;5028;50.974;4.968;2023-03-01T05:31:26;-2.20;99.90
9975;DHT22;5028;50.974;4.968;2023-03-01T05:34:04;-2.20;99.90
9975;DHT22;5028;50.974;4.968;2023-03-01T05:36:35;-2.20;99.90
9975;DHT22;5028;50.974;4.968;2023-03-01T05:39:11;-2.20;99.90
9975;DHT22;5028;50.974;4.968;2023-03-01T05:41:41;-2.20;99.90
9975;DHT22;5028;50.974;4.968;2023-03-01T05:44:17;-2.30;99.90
9975;DHT22;5028;50.974;4.968;2023-03-01T05:46:47;-2.30;99.90
9975;DHT22;5028;50.974;4.968;2023-03-01T05:49:24;-2.30;99.90
9975;DHT22;5028;50.974;4.968;2023-03-01T05:51:58;-2.30;99.90
9975;DHT22;5028;50.974;4.968;2023-03-01T05:54:34;-2.30;99.90
9975;DHT22;5028;50.974;4.968;2023-03-01T05:57:03;-2.30;99.90
9975;DHT22;5028;50.974;4.968;2023-03-01T05:59:38;-2.30;99.90
9975;DHT22;5028;50.974;4.968;2023-03-01T06:02:13;-2.30;99.90
9975;DHT22;5028;50.974;4.968;2023-03-01T06:04:54;-2.30;99.90
9975;DHT22;5028;50.974;4.968;2023-03-01T06:07:32;-2.30;99.90
9975;DHT22;5028;50.974;4.968;2023-03-01T06:10:08;-2.30;99.90
9975;DHT22;5028;50.974;4.968;2023-03-01T06:12:38;-2.30;99.90
9975;DHT22;5028;50.974;4.968;2023-03-01T06:15:17;-2.30;99.90
9975;DHT22;5028;50.974;4.968;2023-03-01T06:17:47;-2.30;99.90
9975;DHT22;5028;50.974;4.968;2023-03-01T06:20:27;-2.00;99.90
9975;DHT22;5028;50.974;4.968;2023-03-01T06:23:03;-2.30;99.90
9975;DHT22;5028;50.974;4.968;2023-03-01T06:25:37;-2.30;99.90
9975;DHT22;5028;50.974;4.968;2023-03-01T06:28:13;-2.30;99.90
9975;DHT22;5028;50.974;4.968;2023-03-01T06:30:43;-2.30;99.90
9975;DHT22;5028;50.974;4.968;2023-03-01T06:33:12;-2.20;99.90
9975;DHT22;5028;50.974;4.968;2023-03-01T06:35:49;-2.30;99.90
9975;DHT22;5028;50.974;4.968;2023-03-01T06:38:25;-2.30;99.90
9975;DHT22;5028;50.974;4.968;2023-03-01T06:40:55;-2.30;99.90
9975;DHT22;5028;50.974;4.968;2023-03-01T06:43:33;-2.10;99.90
9975;DHT22;5028;50.974;4.968;2023-03-01T06:46:04;-2.30;99.90
9975;DHT22;5028;50.974;4.968;2023-03-01T06:48:40;-2.30;99.90
9975;DHT22;5028;50.974;4.968;2023-03-01T06:51:10;-2.20;99.90
9975;DHT22;5028;50.974;4.968;2023-03-01T06:53:47;-2.20;99.90
9975;DHT22;5028;50.974;4.968;2023-03-01T06:56:22;-2.20;99.90
9975;DHT22;5028;50.974;4.968;2023-03-01T06:58:51;-2.20;99.90
9975;DHT22;5028;50.974;4.968;2023-03-01T07:01:28;-2.20;99.90
9975;DHT22;5028;50.974;4.968;2023-03-01T07:04:11;-2.20;99.90
9975;DHT22;5028;50.974;4.968;2023-03-01T07:06:47;-2.20;99.90
9975;DHT22;5028;50.974;4.968;2023-03-01T07:09:30;-2.20;99.90
9975;DHT22;5028;50.974;4.968;2023-03-01T07:12:05;-2.10;99.90
9975;DHT22;5028;50.974;4.968;2023-03-01T07:14:35;-2.10;99.90
9975;DHT22;5028;50.974;4.968;2023-03-01T07:17:10;-2.10;99.90
9975;DHT22;5028;50.974;4.968;2023-03-01T07:19:42;-2.00;99.90
9975;DHT22;5028;50.974;4.968;2023-03-01T07:22:20;-2.00;99.90
9975;DHT22;5028;50.974;4.968;2023-03-01T07:25:03;-2.00;99.90
9975;DHT22;5028;50.974;4.968;2023-03-01T07:27:32;-1.90;99.90
9975;DHT22;5028;50.974;4.968;2023-03-01T07:30:09;-1.90;99.90
9975;DHT22;5028;50.974;4.968;2023-03-01T07:32:45;-1.80;99.90
9975;DHT22;5028;50.974;4.968;2023-03-01T07:35:19;-1.80;99.90
9975;DHT22;5028;50.974;4.968;2023-03-01T07:37:54;-1.80;99.90
9975;DHT22;5028;50.974;4.968;2023-03-01T07:40:24;-1.80;99.90
9975;DHT22;5028;50.974;4.968;2023-03-01T07:42:55;-1.70;99.90
9975;DHT22;5028;50.974;4.968;2023-03-01T07:45:32;-1.70;99.90
9975;DHT22;5028;50.974;4.968;2023-03-01T07:48:01;-1.60;99.90
9975;DHT22;5028;50.974;4.968;2023-03-01T07:50:39;-1.40;99.90
9975;DHT22;5028;50.974;4.968;2023-03-01T07:53:08;-1.50;99.90
9975;DHT22;5028;50.974;4.968;2023-03-01T07:55:39;-1.40;99.90
9975;DHT22;5028;50.974;4.968;2023-03-01T07:58:17;-1.30;99.90
9975;DHT22;5028;50.974;4.968;2023-03-01T08:00:46;-1.30;99.90
9975;DHT22;5028;50.974;4.968;2023-03-01T08:03:27;-1.20;99.90
9975;DHT22;5028;50.974;4.968;2023-03-01T08:06:10;-1.10;99.90
9975;DHT22;5028;50.974;4.968;2023-03-01T08:08:45;-1.00;99.90
9975;DHT22;5028;50.974;4.968;2023-03-01T08:11:16;-0.90;99.90
9975;DHT22;5028;50.974;4.968;2023-03-01T08:13:52;-0.90;99.90
9975;DHT22;5028;50.974;4.968;2023-03-01T08:16:21;-0.80;99.90
9975;DHT22;5028;50.974;4.968;2023-03-01T08:18:57;-0.70;99.90
9975;DHT22;5028;50.974;4.968;2023-03-01T08:21:28;-0.70;99.90
9975;DHT22;5028;50.974;4.968;2023-03-01T08:24:04;-0.60;99.90
9975;DHT22;5028;50.974;4.968;2023-03-01T08:26:45;-0.50;99.90
9975;DHT22;5028;50.974;4.968;2023-03-01T08:29:21;-0.40;99.90
9975;DHT22;5028;50.974;4.968;2023-03-01T08:31:59;-0.40;99.90
9975;DHT22;5028;50.974;4.968;2023-03-01T08:34:28;-0.20;99.90
9975;DHT22;5028;50.974;4.968;2023-03-01T08:37:05;-0.20;99.90
9975;DHT22;5028;50.974;4.968;2023-03-01T08:39:37;-0.10;99.90
9975;DHT22;5028;50.974;4.968;2023-03-01T08:42:14;0.10;99.90
9975;DHT22;5028;50.974;4.968;2023-03-01T08:44:42;0.00;99.90
9975;DHT22;5028;50.974;4.968;2023-03-01T08:47:18;0.10;99.90
9975;DHT22;5028;50.974;4.968;2023-03-01T08:49:48;0.20;99.90
9975;DHT22;5028;50.974;4.968;2023-03-01T08:52:23;0.20;99.90
9975;DHT22;5028;50.974;4.968;2023-03-01T08:54:53;0.30;99.90
9975;DHT22;5028;50.974;4.968;2023-03-01T08:57:29;0.40;99.90
9975;DHT22;5028;50.974;4.968;2023-03-01T08:59:58;0.50;99.90
9975;DHT22;5028;50.974;4.968;2023-03-01T09:02:33;0.60;99.90
9975;DHT22;5028;50.974;4.968;2023-03-01T09:05:09;0.60;99.90
9975;DHT22;5028;50.974;4.968;2023-03-01T09:07:46;0.80;99.90
9975;DHT22;5028;50.974;4.968;2023-03-01T09:10:15;0.70;99.90
9975;DHT22;5028;50.974;4.968;2023-03-01T09:12:52;0.80;99.90
9975;DHT22;5028;50.974;4.968;2023-03-01T09:15:29;0.90;99.90
9975;DHT22;5028;50.974;4.968;2023-03-01T09:18:04;1.00;99.90
9975;DHT22;5028;50.974;4.968;2023-03-01T09:20:33;1.10;99.90
9975;DHT22;5028;50.974;4.968;2023-03-01T09:23:08;1.20;99.90
9975;DHT22;5028;50.974;4.968;2023-03-01T09:25:37;1.30;99.90
9975;DHT22;5028;50.974;4.968;2023-03-01T09:28:14;1.30;99.90
9975;DHT22;5028;50.974;4.968;2023-03-01T09:30:58;1.40;99.90
9975;DHT22;5028;50.974;4.968;2023-03-01T09:33:34;1.50;99.90
9975;DHT22;5028;50.974;4.968;2023-03-01T09:36:04;1.50;99.90
9975;DHT22;5028;50.974;4.968;2023-03-01T09:38:40;1.60;99.90
9975;DHT22;5028;50.974;4.968;2023-03-01T09:41:11;1.70;99.90
9975;DHT22;5028;50.974;4.968;2023-03-01T09:44:01;1.70;99.90
9975;DHT22;5028;50.974;4.968;2023-03-01T09:46:35;1.80;99.90
9975;DHT22;5028;50.974;4.968;2023-03-01T09:49:14;1.90;99.90
9975;DHT22;5028;50.974;4.968;2023-03-01T09:51:55;2.00;99.90
9975;DHT22;5028;50.974;4.968;2023-03-01T09:54:31;2.10;99.90
9975;DHT22;5028;50.974;4.968;2023-03-01T09:57:17;2.20;99.90
9975;DHT22;5028;50.974;4.968;2023-03-01T10:00:18;2.30;99.90
9975;DHT22;5028;50.974;4.968;2023-03-01T10:02:51;2.40;99.90
9975;DHT22;5028;50.974;4.968;2023-03-01T10:05:36;2.50;99.90
9975;DHT22;5028;50.974;4.968;2023-03-01T10:08:29;2.60;99.90
9975;DHT22;5028;50.974;4.968;2023-03-01T10:11:20;2.70;99.90
9975;DHT22;5028;50.974;4.968;2023-03-01T10:13:57;2.80;99.90
9975;DHT22;5028;50.974;4.968;2023-03-01T10:16:40;2.80;99.90
9975;DHT22;5028;50.974;4.968;2023-03-01T10:19:14;3.00;99.90
9975;DHT22;5028;50.974;4.968;2023-03-01T10:21:51;3.10;99.90
9975;DHT22;5028;50.974;4.968;2023-03-01T10:24:21;3.20;99.90
9975;DHT22;5028;50.974;4.968;2023-03-01T10:26:58;3.30;99.90
9975;DHT22;5028;50.974;4.968;2023-03-01T10:29:40;3.40;99.90
9975;DHT22;5028;50.974;4.968;2023-03-01T10:32:19;3.40;99.90
9975;DHT22;5028;50.974;4.968;2023-03-01T10:34:51;3.50;99.90
9975;DHT22;5028;50.974;4.968;2023-03-01T10:37:26;3.70;99.90
9975;DHT22;5028;50.974;4.968;2023-03-01T10:39:57;3.80;99.90
9975;DHT22;5028;50.974;4.968;2023-03-01T10:42:35;3.80;99.90
9975;DHT22;5028;50.974;4.968;2023-03-01T10:45:30;4.00;99.90
9975;DHT22;5028;50.974;4.968;2023-03-01T10:48:14;4.10;99.90
9975;DHT22;5028;50.974;4.968;2023-03-01T10:51:07;4.10;99.90
9975;DHT22;5028;50.974;4.968;2023-03-01T10:53:44;4.00;99.90
9975;DHT22;5028;50.974;4.968;2023-03-01T10:56:23;4.10;99.90
9975;DHT22;5028;50.974;4.968;2023-03-01T10:58:58;4.20;99.90
9975;DHT22;5028;50.974;4.968;2023-03-01T11:01:36;4.20;99.90
9975;DHT22;5028;50.974;4.968;2023-03-01T11:04:13;4.30;99.90
9975;DHT22;5028;50.974;4.968;2023-03-01T11:06:58;4.30;99.90
9975;DHT22;5028;50.974;4.968;2023-03-01T11:09:34;4.40;99.90
9975;DHT22;5028;50.974;4.968;2023-03-01T11:12:14;4.50;99.90
9975;DHT22;5028;50.974;4.968;2023-03-01T11:14:47;4.60;99.90
9975;DHT22;5028;50.974;4.968;2023-03-01T11:17:27;4.70;99.90
9975;DHT22;5028;50.974;4.968;2023-03-01T11:20:18;4.80;99.90
9975;DHT22;5028;50.974;4.968;2023-03-01T11:22:58;4.80;99.90
9975;DHT22;5028;50.974;4.968;2023-03-01T11:25:31;4.80;99.90
9975;DHT22;5028;50.974;4.968;2023-03-01T11:28:13;4.80;99.90
9975;DHT22;5028;50.974;4.968;2023-03-01T11:30:49;4.90;99.90
9975;DHT22;5028;50.974;4.968;2023-03-01T11:33:43;5.10;99.90
9975;DHT22;5028;50.974;4.968;2023-03-01T11:36:19;5.30;99.90
9975;DHT22;5028;50.974;4.968;2023-03-01T11:39:05;5.30;99.90
9975;DHT22;5028;50.974;4.968;2023-03-01T11:41:41;5.50;99.90
9975;DHT22;5028;50.974;4.968;2023-03-01T11:44:21;5.60;99.90
9975;DHT22;5028;50.974;4.968;2023-03-01T11:47:15;5.50;99.90
9975;DHT22;5028;50.974;4.968;2023-03-01T11:50:17;5.80;99.90
9975;DHT22;5028;50.974;4.968;2023-03-01T11:52:57;6.00;99.90
9975;DHT22;5028;50.974;4.968;2023-03-01T11:55:55;6.00;99.90
9975;DHT22;5028;50.974;4.968;2023-03-01T11:58:38;6.00;99.90
9975;DHT22;5028;50.974;4.968;2023-03-01T12:01:32;6.10;99.90
9975;DHT22;5028;50.974;4.968;2023-03-01T12:04:48;6.00;99.90
9975;DHT22;5028;50.974;4.968;2023-03-01T12:07:35;6.00;99.90
9975;DHT22;5028;50.974;4.968;2023-03-01T12:10:37;6.20;99.90
9975;DHT22;5028;50.974;4.968;2023-03-01T12:13:35;6.30;99.90
9975;DHT22;5028;50.974;4.968;2023-03-01T12:16:19;6.30;99.90
9975;DHT22;5028;50.974;4.968;2023-03-01T12:19:20;6.40;99.90
9975;DHT22;5028;50.974;4.968;2023-03-01T12:25:11;6.60;99.90
9975;DHT22;5028;50.974;4.968;2023-03-01T12:28:01;6.40;99.90
9975;DHT22;5028;50.974;4.968;2023-03-01T12:30:54;6.20;99.90
9975;DHT22;5028;50.974;4.968;2023-03-01T12:33:33;6.00;99.90
9975;DHT22;5028;50.974;4.968;2023-03-01T12:36:24;6.10;99.90
9975;DHT22;5028;50.974;4.968;2023-03-01T12:39:08;6.10;99.90
9975;DHT22;5028;50.974;4.968;2023-03-01T12:41:55;6.20;99.90
9975;DHT22;5028;50.974;4.968;2023-03-01T12:44:51;6.30;99.90
9975;DHT22;5028;50.974;4.968;2023-03-01T12:47:44;6.30;99.90
9975;DHT22;5028;50.974;4.968;2023-03-01T12:50:19;6.30;99.90
9975;DHT22;5028;50.974;4.968;2023-03-01T12:52:56;6.40;99.90
9975;DHT22;5028;50.974;4.968;2023-03-01T12:55:29;6.40;99.90
9975;DHT22;5028;50.974;4.968;2023-03-01T12:58:11;6.40;99.90
9975;DHT22;5028;50.974;4.968;2023-03-01T13:00:47;6.30;99.90
9975;DHT22;5028;50.974;4.968;2023-03-01T13:03:32;6.40;99.90
9975;DHT22;5028;50.974;4.968;2023-03-01T13:06:54;6.60;99.90
9975;DHT22;5028;50.974;4.968;2023-03-01T13:09:36;6.70;99.90
9975;DHT22;5028;50.974;4.968;2023-03-01T13:12:45;6.70;99.90
9975;DHT22;5028;50.974;4.968;2023-03-01T13:15:43;6.90;99.90
9975;DHT22;5028;50.974;4.968;2023-03-01T13:18:32;6.90;99.90
9975;DHT22;5028;50.974;4.968;2023-03-01T13:21:02;7.00;99.90
9975;DHT22;5028;50.974;4.968;2023-03-01T13:23:39;7.10;99.90
9975;DHT22;5028;50.974;4.968;2023-03-01T13:26:17;7.00;99.90
9975;DHT22;5028;50.974;4.968;2023-03-01T13:28:54;6.90;99.90
9975;DHT22;5028;50.974;4.968;2023-03-01T13:32:01;7.10;99.90
9975;DHT22;5028;50.974;4.968;2023-03-01T13:34:59;7.10;99.90
9975;DHT22;5028;50.974;4.968;2023-03-01T13:37:36;7.00;99.90
9975;DHT22;5028;50.974;4.968;2023-03-01T13:43:30;6.80;99.90
9975;DHT22;5028;50.974;4.968;2023-03-01T13:46:00;6.90;99.90
9975;DHT22;5028;50.974;4.968;2023-03-01T13:48:41;7.10;99.90
9975;DHT22;5028;50.974;4.968;2023-03-01T13:51:12;7.10;99.90
9975;DHT22;5028;50.974;4.968;2023-03-01T13:53:47;7.20;99.90
9975;DHT22;5028;50.974;4.968;2023-03-01T13:56:19;7.00;99.90
9975;DHT22;5028;50.974;4.968;2023-03-01T13:58:59;7.00;99.90
9975;DHT22;5028;50.974;4.968;2023-03-01T14:01:30;6.90;99.90
9975;DHT22;5028;50.974;4.968;2023-03-01T14:04:21;6.80;99.90
9975;DHT22;5028;50.974;4.968;2023-03-01T14:07:11;6.70;99.90
9975;DHT22;5028;50.974;4.968;2023-03-01T14:09:43;6.80;99.90
9975;DHT22;5028;50.974;4.968;2023-03-01T14:12:30;6.90;99.90
9975;DHT22;5028;50.974;4.968;2023-03-01T14:15:04;6.80;99.90
9975;DHT22;5028;50.974;4.968;2023-03-01T14:17:50;7.00;99.90
9975;DHT22;5028;50.974;4.968;2023-03-01T14:20:24;6.90;99.90
9975;DHT22;5028;50.974;4.968;2023-03-01T14:23:02;6.80;99.90
9975;DHT22;5028;50.974;4.968;2023-03-01T14:25:37;6.90;99.90
9975;DHT22;5028;50.974;4.968;2023-03-01T14:28:16;6.90;99.90
9975;DHT22;5028;50.974;4.968;2023-03-01T14:30:46;6.80;99.90
9975;DHT22;5028;50.974;4.968;2023-03-01T14:33:24;6.70;99.90
9975;DHT22;5028;50.974;4.968;2023-03-01T14:35:58;6.60;99.90
9975;DHT22;5028;50.974;4.968;2023-03-01T14:38:36;6.60;99.90
9975;DHT22;5028;50.974;4.968;2023-03-01T14:41:07;6.70;99.90
9975;DHT22;5028;50.974;4.968;2023-03-01T14:43:46;6.60;99.90
9975;DHT22;5028;50.974;4.968;2023-03-01T14:46:20;6.60;99.90
9975;DHT22;5028;50.974;4.968;2023-03-01T14:49:02;6.50;99.90
9975;DHT22;5028;50.974;4.968;2023-03-01T14:51:40;6.60;99.90
9975;DHT22;5028;50.974;4.968;2023-03-01T14:54:21;6.60;99.90
9975;DHT22;5028;50.974;4.968;2023-03-01T14:56:53;6.60;99.90
9975;DHT22;5028;50.974;4.968;2023-03-01T14:59:28;6.60;99.90
9975;DHT22;5028;50.974;4.968;2023-03-01T15:01:58;6.60;99.90
9975;DHT22;5028;50.974;4.968;2023-03-01T15:04:41;6.60;99.90
9975;DHT22;5028;50.974;4.968;2023-03-01T15:07:13;6.60;99.90
9975;DHT22;5028;50.974;4.968;2023-03-01T15:09:48;6.60;99.90
9975;DHT22;5028;50.974;4.968;2023-03-01T15:12:38;6.60;99.90
9975;DHT22;5028;50.974;4.968;2023-03-01T15:15:32;6.50;99.90
9975;DHT22;5028;50.974;4.968;2023-03-01T15:18:03;6.50;99.90
9975;DHT22;5028;50.974;4.968;2023-03-01T15:20:39;6.50;99.90
9975;DHT22;5028;50.974;4.968;2023-03-01T15:23:19;6.50;99.90
9975;DHT22;5028;50.974;4.968;2023-03-01T15:25:56;6.40;99.90
9975;DHT22;5028;50.974;4.968;2023-03-01T15:28:27;6.40;99.90
9975;DHT22;5028;50.974;4.968;2023-03-01T15:31:12;6.40;99.90
9975;DHT22;5028;50.974;4.968;2023-03-01T15:33:46;6.40;99.90
9975;DHT22;5028;50.974;4.968;2023-03-01T15:36:35;6.30;99.90
9975;DHT22;5028;50.974;4.968;2023-03-01T15:39:44;6.30;99.90
9975;DHT22;5028;50.974;4.968;2023-03-01T15:42:37;6.30;99.90
9975;DHT22;5028;50.974;4.968;2023-03-01T15:45:10;6.30;99.90
9975;DHT22;5028;50.974;4.968;2023-03-01T15:47:49;6.30;99.90
9975;DHT22;5028;50.974;4.968;2023-03-01T15:50:21;6.30;99.90
9975;DHT22;5028;50.974;4.968;2023-03-01T15:52:58;6.30;99.90
9975;DHT22;5028;50.974;4.968;2023-03-01T15:55:31;6.30;99.90
9975;DHT22;5028;50.974;4.968;2023-03-01T15:58:13;6.30;99.90
9975;DHT22;5028;50.974;4.968;2023-03-01T16:00:43;6.20;99.90
9975;DHT22;5028;50.974;4.968;2023-03-01T16:03:27;6.20;99.90
9975;DHT22;5028;50.974;4.968;2023-03-01T16:05:56;6.10;99.90
9975;DHT22;5028;50.974;4.968;2023-03-01T16:08:38;6.10;99.90
9975;DHT22;5028;50.974;4.968;2023-03-01T16:11:16;6.10;99.90
9975;DHT22;5028;50.974;4.968;2023-03-01T16:13:52;5.90;99.90
9975;DHT22;5028;50.974;4.968;2023-03-01T16:16:21;6.00;99.90
9975;DHT22;5028;50.974;4.968;2023-03-01T16:18:57;6.00;99.90
9975;DHT22;5028;50.974;4.968;2023-03-01T16:21:26;6.00;99.90
9975;DHT22;5028;50.974;4.968;2023-03-01T16:24:01;6.00;99.90
9975;DHT22;5028;50.974;4.968;2023-03-01T16:26:32;6.00;99.90
9975;DHT22;5028;50.974;4.968;2023-03-01T16:29:07;6.00;99.90
9975;DHT22;5028;50.974;4.968;2023-03-01T16:31:36;6.00;99.90
9975;DHT22;5028;50.974;4.968;2023-03-01T16:34:12;6.00;99.90
9975;DHT22;5028;50.974;4.968;2023-03-01T16:36:42;6.00;99.90
9975;DHT22;5028;50.974;4.968;2023-03-01T16:39:17;6.00;99.90
9975;DHT22;5028;50.974;4.968;2023-03-01T16:41:48;6.00;99.90
9975;DHT22;5028;50.974;4.968;2023-03-01T16:44:23;5.90;99.90
9975;DHT22;5028;50.974;4.968;2023-03-01T16:46:52;5.90;99.90
9975;DHT22;5028;50.974;4.968;2023-03-01T16:49:27;5.80;99.90
9975;DHT22;5028;50.974;4.968;2023-03-01T16:51:56;5.70;99.90
9975;DHT22;5028;50.974;4.968;2023-03-01T16:54:31;5.70;99.90
9975;DHT22;5028;50.974;4.968;2023-03-01T16:57:02;5.60;99.90
9975;DHT22;5028;50.974;4.968;2023-03-01T16:59:37;5.50;99.90
9975;DHT22;5028;50.974;4.968;2023-03-01T17:02:10;5.50;99.90
9975;DHT22;5028;50.974;4.968;2023-03-01T17:04:54;5.50;99.90
9975;DHT22;5028;50.974;4.968;2023-03-01T17:07:30;5.40;99.90
9975;DHT22;5028;50.974;4.968;2023-03-01T17:10:08;5.40;99.90
9975;DHT22;5028;50.974;4.968;2023-03-01T17:12:39;5.30;99.90
9975;DHT22;5028;50.974;4.968;2023-03-01T17:15:14;5.30;99.90
9975;DHT22;5028;50.974;4.968;2023-03-01T17:17:43;5.20;99.90
9975;DHT22;5028;50.974;4.968;2023-03-01T17:20:20;5.20;99.90